createdAt,value
2022-09-09T00:01:38.070Z,22.10
2022-09-09T00:04:06.285Z,22.04
2022-09-09T00:06:36.306Z,22.08
2022-09-09T00:09:08.067Z,22.06
2022-09-09T00:11:42.305Z,22.06
2022-09-09T00:14:29.439Z,22.03
2022-09-09T00:16:56.578Z,22.03
2022-09-09T00:19:22.857Z,22.00
2022-09-09T00:21:55.079Z,22.00
2022-09-09T00:24:33.066Z,22.01
2022-09-09T00:27:02.079Z,21.99
2022-09-09T00:29:36.768Z,22.01
2022-09-09T00:32:10.101Z,22.00
2022-09-09T00:34:36.522Z,21.97
2022-09-09T00:37:02.905Z,21.97
2022-09-09T00:39:33.684Z,21.97
2022-09-09T00:42:10.084Z,21.96
2022-09-09T00:44:37.771Z,21.95
2022-09-09T00:47:06.849Z,21.94
2022-09-09T00:49:36.899Z,21.93
2022-09-09T00:52:22.184Z,21.93
2022-09-09T00:54:50.255Z,21.89
2022-09-09T00:57:32.219Z,21.91
2022-09-09T01:00:18.756Z,21.92
2022-09-09T01:03:08.485Z,21.89
2022-09-09T01:05:53.690Z,21.88
2022-09-09T01:08:34.481Z,21.88
2022-09-09T01:11:00.923Z,21.85
2022-09-09T01:13:32.726Z,21.88
2022-09-09T01:16:03.593Z,21.87
2022-09-09T01:18:35.630Z,21.84
2022-09-09T01:21:05.428Z,21.84
2022-09-09T01:23:35.310Z,21.82
2022-09-09T01:26:19.194Z,21.84
2022-09-09T01:28:46.560Z,21.82
2022-09-09T01:31:19.615Z,21.81
2022-09-09T01:33:47.560Z,21.82
2022-09-09T01:36:34.551Z,21.82
2022-09-09T01:39:01.013Z,21.81
2022-09-09T01:41:28.183Z,21.79
2022-09-09T01:44:02.629Z,21.80
2022-09-09T01:46:30.329Z,21.80
2022-09-09T01:48:57.592Z,21.80
2022-09-09T01:51:23.994Z,21.79
2022-09-09T01:53:50.742Z,21.79
2022-09-09T01:56:37.911Z,21.79
2022-09-09T01:59:24.356Z,21.78
2022-09-09T02:02:14.550Z,21.76
2022-09-09T02:04:47.538Z,21.75
2022-09-09T02:07:29.299Z,21.73
2022-09-09T02:10:01.955Z,21.72
2022-09-09T02:12:28.363Z,21.72
2022-09-09T02:14:57.450Z,21.74
2022-09-09T02:17:27.169Z,21.73
2022-09-09T02:20:09.740Z,21.73
2022-09-09T02:23:03.528Z,21.71
2022-09-09T02:25:31.258Z,21.72
2022-09-09T02:28:14.933Z,21.69
2022-09-09T02:30:41.701Z,21.71
2022-09-09T02:33:08.773Z,21.71
2022-09-09T02:35:42.979Z,21.69
2022-09-09T02:38:10.653Z,21.70
2022-09-09T02:40:38.650Z,21.67
2022-09-09T02:43:05.308Z,21.66
2022-09-09T02:45:35.535Z,21.65
2022-09-09T02:48:17.497Z,21.65
2022-09-09T02:50:48.902Z,21.65
2022-09-09T02:53:19.244Z,21.64
2022-09-09T02:55:56.550Z,21.65
2022-09-09T02:58:24.051Z,21.65
2022-09-09T03:01:04.109Z,21.63
2022-09-09T03:03:31.302Z,21.62
2022-09-09T03:05:58.681Z,21.61
2022-09-09T03:08:28.608Z,21.62
2022-09-09T03:10:56.881Z,21.62
2022-09-09T03:13:26.183Z,21.61
2022-09-09T03:15:52.779Z,21.61
2022-09-09T03:18:20.853Z,21.58
2022-09-09T03:20:50.612Z,21.57
2022-09-09T03:23:17.695Z,21.54
2022-09-09T03:25:49.441Z,21.50
2022-09-09T03:28:19.355Z,21.51
2022-09-09T03:30:46.280Z,21.52
2022-09-09T03:33:13.601Z,21.53
2022-09-09T03:35:40.651Z,21.46
2022-09-09T03:38:07.443Z,21.42
2022-09-09T03:40:35.026Z,21.42
2022-09-09T03:43:01.714Z,21.42
2022-09-09T03:45:28.463Z,21.39
2022-09-09T03:47:55.379Z,21.40
2022-09-09T03:50:21.786Z,21.39
2022-09-09T03:52:49.409Z,21.38
2022-09-09T03:55:20.642Z,21.37
2022-09-09T03:57:47.090Z,21.38
2022-09-09T04:00:13.657Z,21.36
2022-09-09T04:02:44.405Z,21.34
2022-09-09T04:05:15.532Z,21.32
2022-09-09T04:07:43.543Z,21.33
2022-09-09T04:10:09.886Z,21.32
2022-09-09T04:12:38.429Z,21.23
2022-09-09T04:15:04.954Z,20.99
2022-09-09T04:17:32.046Z,21.07
2022-09-09T04:19:58.483Z,21.11
2022-09-09T04:22:24.855Z,21.13
2022-09-09T04:24:51.385Z,21.06
2022-09-09T04:27:19.430Z,21.14
2022-09-09T04:29:45.974Z,21.13
2022-09-09T04:32:13.261Z,21.08
2022-09-09T04:34:42.217Z,21.07
2022-09-09T04:37:09.408Z,20.99
2022-09-09T04:39:36.286Z,20.89
2022-09-09T04:42:04.168Z,20.90
2022-09-09T04:44:31.263Z,20.85
2022-09-09T04:46:57.592Z,20.87
2022-09-09T04:49:24.218Z,20.12
2022-09-09T04:51:50.683Z,19.77
2022-09-09T04:54:17.914Z,19.52
2022-09-09T04:56:45.576Z,19.65
2022-09-09T04:59:12.303Z,19.54
2022-09-09T05:01:48.815Z,19.25
2022-09-09T05:04:17.066Z,19.24
2022-09-09T05:06:43.501Z,19.50
2022-09-09T05:09:10.719Z,19.41
2022-09-09T05:11:37.708Z,19.42
2022-09-09T05:14:31.061Z,19.34
2022-09-09T05:16:59.418Z,19.33
2022-09-09T05:19:25.787Z,19.12
2022-09-09T05:21:53.519Z,19.10
2022-09-09T05:24:25.830Z,19.24
2022-09-09T05:26:54.857Z,19.15
2022-09-09T05:29:21.259Z,19.24
2022-09-09T05:31:48.131Z,19.20
2022-09-09T05:34:17.466Z,19.20
2022-09-09T05:36:43.827Z,19.08
2022-09-09T05:39:10.346Z,19.10
2022-09-09T05:41:36.909Z,19.02
2022-09-09T05:44:04.495Z,19.02
2022-09-09T05:46:35.329Z,19.02
2022-09-09T05:49:02.585Z,19.11
2022-09-09T05:51:31.431Z,19.37
2022-09-09T05:54:00.231Z,19.82
2022-09-09T05:56:29.584Z,19.94
2022-09-09T05:58:57.142Z,20.06
2022-09-09T06:01:27.965Z,20.14
2022-09-09T06:03:54.399Z,20.26
2022-09-09T06:06:23.648Z,20.48
2022-09-09T06:08:51.859Z,20.61
2022-09-09T06:11:19.032Z,20.72
2022-09-09T06:13:45.699Z,20.78
2022-09-09T06:16:12.869Z,20.84
2022-09-09T06:18:40.271Z,20.89
2022-09-09T06:21:07.545Z,20.92
2022-09-09T06:23:35.568Z,20.95
2022-09-09T06:26:03.836Z,20.97
2022-09-09T06:28:30.315Z,20.99
2022-09-09T06:31:00.607Z,21.01
2022-09-09T06:33:28.795Z,21.03
2022-09-09T06:35:55.619Z,21.05
2022-09-09T06:38:23.382Z,21.07
2022-09-09T06:40:56.636Z,21.09
2022-09-09T06:43:24.102Z,21.09
2022-09-09T06:45:57.575Z,21.12
2022-09-09T06:48:24.223Z,21.15
2022-09-09T06:50:50.815Z,21.17
2022-09-09T06:53:19.977Z,21.17
2022-09-09T06:55:46.899Z,21.19
2022-09-09T06:58:13.496Z,21.20
2022-09-09T07:00:40.333Z,21.21
2022-09-09T07:03:07.108Z,21.23
2022-09-09T07:05:33.442Z,21.25
2022-09-09T07:07:59.804Z,21.25
2022-09-09T07:10:26.857Z,21.23
2022-09-09T07:12:54.070Z,20.96
2022-09-09T07:15:23.828Z,21.06
2022-09-09T07:17:50.247Z,21.16
2022-09-09T07:20:17.051Z,21.20
2022-09-09T07:22:43.691Z,21.19
2022-09-09T07:25:10.897Z,21.21
2022-09-09T07:27:37.578Z,21.21
2022-09-09T07:30:05.327Z,21.30
2022-09-09T07:32:33.663Z,21.38
2022-09-09T07:35:00.859Z,21.30
2022-09-09T07:37:27.983Z,21.21
2022-09-09T07:39:54.477Z,21.17
2022-09-09T07:42:20.944Z,21.18
2022-09-09T07:44:47.654Z,21.26
2022-09-09T07:47:15.976Z,21.52
2022-09-09T07:49:47.187Z,21.65
2022-09-09T07:52:18.213Z,21.65
2022-09-09T07:54:48.775Z,22.46
2022-09-09T07:57:16.460Z,22.73
2022-09-09T07:59:42.962Z,22.79
2022-09-09T08:02:10.485Z,22.75
2022-09-09T08:04:36.999Z,22.77
2022-09-09T08:07:04.331Z,22.43
2022-09-09T08:09:35.501Z,22.50
2022-09-09T08:12:09.883Z,22.62
2022-09-09T08:14:36.588Z,22.76
2022-09-09T08:17:02.919Z,22.79
2022-09-09T08:19:33.989Z,22.87
2022-09-09T08:22:02.711Z,22.82
2022-09-09T08:24:30.182Z,22.88
2022-09-09T08:26:57.674Z,22.85
2022-09-09T08:29:24.295Z,22.86
2022-09-09T08:31:53.753Z,22.88
2022-09-09T08:34:21.028Z,22.84
2022-09-09T08:36:49.185Z,22.86
2022-09-09T08:39:16.753Z,22.82
2022-09-09T08:42:07.532Z,22.93
2022-09-09T08:44:37.993Z,23.00
2022-09-09T08:47:12.469Z,22.83
2022-09-09T08:49:47.871Z,23.08
2022-09-09T08:52:16.907Z,22.97
2022-09-09T08:54:52.301Z,22.93
2022-09-09T08:57:21.582Z,22.94
2022-09-09T08:59:48.051Z,22.94
2022-09-09T09:02:18.364Z,22.88
2022-09-09T09:05:00.137Z,23.01
2022-09-09T09:07:33.360Z,22.94
2022-09-09T09:10:03.575Z,22.99
2022-09-09T09:12:36.487Z,23.12
2022-09-09T09:15:02.991Z,23.06
2022-09-09T09:17:32.282Z,22.97
2022-09-09T09:19:58.911Z,23.07
2022-09-09T09:22:38.216Z,23.08
2022-09-09T09:25:12.651Z,23.12
2022-09-09T09:27:52.545Z,23.14
2022-09-09T09:30:29.482Z,23.07
2022-09-09T09:33:06.809Z,22.93
2022-09-09T09:35:36.277Z,22.51
2022-09-09T09:41:10.441Z,22.17
2022-09-09T09:44:27.118Z,22.42
2022-09-09T09:50:18.697Z,22.32
2022-09-09T09:52:53.976Z,22.68
2022-09-09T09:55:20.746Z,22.59
2022-09-09T09:57:47.058Z,22.57
2022-09-09T10:00:18.719Z,22.55
2022-09-09T10:02:53.458Z,22.62
2022-09-09T10:05:27.302Z,22.62
2022-09-09T10:08:17.550Z,22.57
2022-09-09T10:10:49.394Z,22.55
2022-09-09T10:13:18.710Z,22.51
2022-09-09T10:15:52.468Z,22.50
2022-09-09T10:18:26.414Z,22.51
2022-09-09T10:21:00.938Z,22.80
2022-09-09T10:23:50.586Z,22.85
2022-09-09T10:26:25.280Z,22.84
2022-09-09T10:29:00.668Z,22.88
2022-09-09T10:31:39.402Z,22.92
2022-09-09T10:34:21.565Z,22.87
2022-09-09T10:36:50.043Z,22.78
2022-09-09T10:39:19.595Z,22.76
2022-09-09T10:41:49.414Z,22.61
2022-09-09T10:44:45.283Z,22.68
2022-09-09T10:47:11.545Z,22.75
2022-09-09T10:49:52.870Z,22.75
2022-09-09T10:52:22.291Z,22.65
2022-09-09T10:54:56.138Z,22.63
2022-09-09T10:57:32.930Z,22.68
2022-09-09T11:00:00.933Z,22.74
2022-09-09T11:02:30.813Z,22.86
2022-09-09T11:05:04.727Z,22.72
2022-09-09T11:07:34.271Z,22.85
2022-09-09T11:10:04.251Z,22.88
2022-09-09T11:12:30.735Z,22.81
2022-09-09T11:14:58.778Z,22.66
2022-09-09T11:17:31.228Z,22.72
2022-09-09T11:19:58.455Z,22.75
2022-09-09T11:22:30.827Z,22.74
2022-09-09T11:25:11.159Z,22.73
2022-09-09T11:27:56.339Z,22.69
2022-09-09T11:30:44.577Z,22.70
2022-09-09T11:33:24.742Z,22.70
2022-09-09T11:36:07.976Z,22.64
2022-09-09T11:38:41.524Z,22.63
2022-09-09T11:41:08.226Z,22.73
2022-09-09T11:43:38.471Z,23.02
2022-09-09T11:46:04.916Z,23.12
2022-09-09T11:48:34.549Z,23.19
2022-09-09T11:51:06.025Z,23.13
2022-09-09T11:53:32.665Z,23.07
2022-09-09T11:56:02.780Z,23.02
2022-09-09T11:58:29.736Z,23.26
2022-09-09T12:00:56.079Z,23.18
2022-09-09T12:03:34.651Z,23.33
2022-09-09T12:06:01.511Z,23.42
2022-09-09T12:08:28.502Z,23.44
2022-09-09T12:10:56.697Z,23.58
2022-09-09T12:13:24.272Z,23.55
2022-09-09T12:15:51.115Z,23.64
2022-09-09T12:18:23.593Z,23.39
2022-09-09T12:20:58.341Z,23.27
2022-09-09T12:23:36.920Z,23.46
2022-09-09T12:26:19.307Z,23.52
2022-09-09T12:29:01.313Z,23.33
2022-09-09T12:31:31.535Z,23.23
2022-09-09T12:34:03.334Z,23.18
2022-09-09T12:36:30.149Z,23.19
2022-09-09T12:38:57.847Z,23.11
2022-09-09T12:41:25.254Z,23.07
2022-09-09T12:43:51.789Z,23.03
2022-09-09T12:46:22.718Z,23.02
2022-09-09T12:48:49.069Z,22.98
2022-09-09T12:51:18.538Z,22.99
2022-09-09T12:53:46.633Z,22.96
2022-09-09T12:56:22.611Z,22.96
2022-09-09T12:58:49.280Z,22.96
2022-09-09T13:01:25.826Z,22.96
2022-09-09T13:03:52.455Z,22.95
2022-09-09T13:06:20.586Z,22.96
2022-09-09T13:08:46.936Z,22.98
2022-09-09T13:11:17.821Z,22.97
2022-09-09T13:13:44.239Z,22.96
2022-09-09T13:16:24.040Z,22.96
2022-09-09T13:18:50.475Z,22.94
2022-09-09T13:21:16.803Z,22.90
2022-09-09T13:24:09.261Z,22.93
2022-09-09T13:26:35.581Z,22.92
2022-09-09T13:29:18.926Z,22.90
2022-09-09T13:31:45.294Z,22.89
2022-09-09T13:34:15.139Z,22.88
2022-09-09T13:36:42.375Z,22.89
2022-09-09T13:39:16.187Z,22.88
2022-09-09T13:41:45.694Z,22.88
2022-09-09T13:44:19.007Z,22.88
2022-09-09T13:46:45.374Z,22.88
2022-09-09T13:49:12.107Z,22.89
2022-09-09T13:51:43.158Z,22.89
2022-09-09T13:54:10.135Z,22.88
2022-09-09T13:56:36.849Z,22.86
2022-09-09T13:59:03.479Z,22.88
2022-09-09T14:01:30.188Z,22.87
2022-09-09T14:03:56.948Z,22.87
2022-09-09T14:06:23.315Z,22.88
2022-09-09T14:08:52.346Z,22.87
2022-09-09T14:11:18.889Z,22.86
2022-09-09T14:13:45.222Z,22.87
2022-09-09T14:16:11.612Z,22.87
2022-09-09T14:18:39.165Z,22.86
2022-09-09T14:21:05.617Z,22.86
2022-09-09T14:23:33.252Z,22.86
2022-09-09T14:25:59.622Z,22.86
2022-09-09T14:28:54.484Z,22.86
2022-09-09T14:31:14.455Z,22.87
2022-09-09T14:33:40.893Z,22.88
2022-09-09T14:36:07.299Z,22.90
2022-09-09T14:38:34.648Z,22.89
2022-09-09T14:41:04.070Z,22.89
2022-09-09T14:43:31.041Z,22.90
2022-09-09T14:45:57.421Z,22.90
2022-09-09T14:48:23.858Z,22.91
2022-09-09T14:50:50.307Z,22.89
2022-09-09T14:53:17.817Z,22.88
2022-09-09T14:55:44.480Z,22.89
2022-09-09T14:58:11.021Z,22.88
2022-09-09T15:00:37.347Z,22.87
2022-09-09T15:03:03.751Z,22.86
2022-09-09T15:05:30.168Z,22.87
2022-09-09T15:07:57.473Z,22.87
2022-09-09T15:10:23.815Z,22.87
2022-09-09T15:12:50.150Z,22.86
2022-09-09T15:15:16.538Z,22.87
2022-09-09T15:17:42.877Z,22.87
2022-09-09T15:20:09.399Z,22.87
2022-09-09T15:22:37.585Z,22.87
2022-09-09T15:25:04.028Z,22.87
2022-09-09T15:27:31.261Z,22.87
2022-09-09T15:29:59.150Z,22.86
2022-09-09T15:32:25.517Z,22.86
2022-09-09T15:34:53.081Z,22.86
2022-09-09T15:37:19.423Z,22.86
2022-09-09T15:39:45.849Z,22.86
2022-09-09T15:42:12.203Z,22.85
2022-09-09T15:44:43.482Z,22.85
2022-09-09T15:47:11.313Z,22.85
2022-09-09T15:49:37.638Z,22.85
2022-09-09T15:52:04.334Z,22.86
2022-09-09T15:54:34.179Z,22.85
2022-09-09T15:57:00.943Z,22.84
2022-09-09T15:59:28.769Z,22.84
2022-09-09T16:01:55.899Z,22.85
2022-09-09T16:04:25.399Z,22.83
2022-09-09T16:06:52.051Z,22.83
2022-09-09T16:09:18.388Z,22.84
2022-09-09T16:11:44.718Z,22.83
2022-09-09T16:14:12.022Z,22.84
2022-09-09T16:16:38.431Z,22.84
2022-09-09T16:19:06.331Z,22.84
2022-09-09T16:21:33.496Z,22.83
2022-09-09T16:24:00.462Z,22.83
2022-09-09T16:26:26.842Z,22.83
2022-09-09T16:28:55.102Z,22.82
2022-09-09T16:31:22.450Z,22.82
2022-09-09T16:33:48.812Z,22.81
2022-09-09T16:36:15.914Z,22.81
2022-09-09T16:38:42.514Z,22.81
2022-09-09T16:41:09.527Z,22.80
2022-09-09T16:43:36.918Z,22.80
2022-09-09T16:46:03.863Z,22.77
2022-09-09T16:48:34.106Z,22.79
2022-09-09T16:51:04.897Z,22.80
2022-09-09T16:53:31.282Z,22.78
2022-09-09T16:55:57.627Z,22.79
2022-09-09T16:58:23.942Z,22.78
2022-09-09T17:00:52.087Z,22.79
2022-09-09T17:03:18.420Z,22.75
2022-09-09T17:05:45.605Z,22.77
2022-09-09T17:08:11.930Z,22.80
2022-09-09T17:10:42.602Z,22.75
2022-09-09T17:13:09.257Z,22.81
2022-09-09T17:15:41.095Z,22.85
2022-09-09T17:18:07.617Z,22.85
2022-09-09T17:20:45.955Z,22.90
2022-09-09T17:23:16.188Z,22.94
2022-09-09T17:25:42.530Z,22.90
2022-09-09T17:28:08.857Z,22.76
2022-09-09T17:30:35.215Z,22.46
2022-09-09T17:33:01.594Z,22.51
2022-09-09T17:35:28.267Z,22.64
2022-09-09T17:37:55.563Z,22.67
2022-09-09T17:40:21.983Z,22.74
2022-09-09T17:42:48.325Z,22.77
2022-09-09T17:45:15.274Z,22.77
2022-09-09T17:47:43.800Z,22.79
2022-09-09T17:50:13.569Z,22.78
2022-09-09T17:52:41.490Z,22.78
2022-09-09T17:55:09.666Z,22.74
2022-09-09T17:57:36.326Z,22.76
2022-09-09T18:00:02.751Z,22.77
2022-09-09T18:02:39.048Z,22.79
2022-09-09T18:05:05.735Z,22.77
2022-09-09T18:07:32.052Z,22.78
2022-09-09T18:09:58.474Z,22.78
2022-09-09T18:12:24.835Z,22.78
2022-09-09T18:14:52.421Z,22.79
2022-09-09T18:17:18.786Z,22.80
2022-09-09T18:19:45.159Z,22.78
2022-09-09T18:22:11.523Z,22.73
2022-09-09T18:24:38.183Z,22.76
2022-09-09T18:27:04.518Z,22.77
2022-09-09T18:29:31.110Z,22.78
2022-09-09T18:31:57.460Z,22.79
2022-09-09T18:34:25.527Z,22.80
2022-09-09T18:36:54.897Z,22.80
2022-09-09T18:39:21.777Z,22.79
2022-09-09T18:41:48.670Z,22.79
2022-09-09T18:44:20.658Z,22.79
2022-09-09T18:46:47.330Z,22.79
2022-09-09T18:49:14.347Z,22.78
2022-09-09T18:51:41.608Z,22.78
2022-09-09T18:54:09.381Z,22.78
2022-09-09T18:56:35.976Z,22.79
2022-09-09T18:59:03.061Z,22.78
2022-09-09T19:01:29.450Z,22.77
2022-09-09T19:03:56.922Z,22.78
2022-09-09T19:06:24.082Z,22.78
2022-09-09T19:08:54.742Z,22.77
2022-09-09T19:11:22.398Z,22.77
2022-09-09T19:13:55.787Z,22.77
2022-09-09T19:16:23.116Z,22.77
2022-09-09T19:18:50.100Z,22.77
2022-09-09T19:21:23.146Z,22.77
2022-09-09T19:24:00.009Z,22.76
2022-09-09T19:26:30.328Z,22.77
2022-09-09T19:28:57.593Z,22.77
2022-09-09T19:31:24.117Z,22.77
2022-09-09T19:33:51.219Z,22.77
2022-09-09T19:36:18.200Z,22.76
2022-09-09T19:38:47.666Z,22.76
2022-09-09T19:41:14.913Z,22.76
2022-09-09T19:43:41.296Z,22.78
2022-09-09T19:46:08.909Z,22.98
2022-09-09T19:48:37.374Z,22.93
2022-09-09T19:51:04.783Z,22.90
2022-09-09T19:53:32.193Z,22.86
2022-09-09T19:55:58.600Z,22.89
2022-09-09T19:58:24.922Z,22.87
2022-09-09T20:00:51.694Z,22.93
2022-09-09T20:03:19.989Z,22.96
2022-09-09T20:05:48.935Z,23.01
2022-09-09T20:08:15.288Z,22.98
2022-09-09T20:10:49.729Z,23.08
2022-09-09T20:13:16.140Z,23.14
2022-09-09T20:15:42.517Z,23.09
2022-09-09T20:18:08.899Z,23.03
2022-09-09T20:20:39.991Z,23.07
2022-09-09T20:23:08.311Z,23.05
2022-09-09T20:25:37.987Z,23.08
2022-09-09T20:28:04.316Z,23.14
2022-09-09T20:30:31.303Z,23.13
2022-09-09T20:32:57.616Z,23.14
2022-09-09T20:35:24.265Z,23.14
2022-09-09T20:37:50.755Z,23.23
2022-09-09T20:40:17.103Z,23.25
2022-09-09T20:42:43.429Z,23.30
2022-09-09T20:45:16.073Z,23.28
2022-09-09T20:47:42.397Z,23.18
2022-09-09T20:50:09.626Z,23.19
2022-09-09T20:52:35.986Z,23.15
2022-09-09T20:55:02.398Z,23.25
2022-09-09T20:57:28.720Z,23.20
2022-09-09T20:59:55.033Z,23.13
2022-09-09T21:02:21.756Z,23.24
2022-09-09T21:04:48.908Z,23.33
2022-09-09T21:07:15.234Z,23.35
2022-09-09T21:09:41.568Z,23.34
2022-09-09T21:12:08.565Z,23.32
2022-09-09T21:14:34.926Z,23.28
2022-09-09T21:17:03.124Z,23.30
2022-09-09T21:19:29.445Z,23.31
2022-09-09T21:21:57.038Z,23.23
2022-09-09T21:24:23.382Z,23.16
2022-09-09T21:26:50.007Z,23.15
2022-09-09T21:29:16.326Z,23.14
2022-09-09T21:31:43.483Z,23.10
2022-09-09T21:34:09.854Z,23.28
2022-09-09T21:36:36.209Z,23.28
2022-09-09T21:39:02.547Z,23.27
2022-09-09T21:41:28.919Z,23.29
2022-09-09T21:43:55.315Z,23.28
2022-09-09T21:46:23.099Z,23.29
2022-09-09T21:48:50.534Z,23.18
2022-09-09T21:51:16.867Z,23.16
2022-09-09T21:53:43.390Z,23.07
2022-09-09T21:56:10.355Z,23.01
2022-09-09T21:58:36.787Z,22.95
2022-09-09T22:01:07.899Z,22.94
2022-09-09T22:03:36.977Z,22.92
2022-09-09T22:06:04.805Z,22.87
2022-09-09T22:08:31.159Z,22.83
2022-09-09T22:10:57.661Z,22.86
2022-09-09T22:13:24.003Z,22.88
2022-09-09T22:15:50.976Z,22.87
2022-09-09T22:18:19.024Z,22.82
2022-09-09T22:20:45.358Z,22.84
2022-09-09T22:23:11.679Z,22.78
2022-09-09T22:25:38.007Z,22.79
2022-09-09T22:28:04.556Z,22.79
2022-09-09T22:30:30.873Z,22.81
2022-09-09T22:32:57.439Z,22.82
2022-09-09T22:35:23.750Z,22.80
2022-09-09T22:37:50.073Z,22.79
2022-09-09T22:40:16.385Z,22.77
2022-09-09T22:42:42.698Z,22.79
2022-09-09T22:45:09.384Z,22.78
2022-09-09T22:47:35.777Z,22.76
2022-09-09T22:50:02.106Z,22.78
2022-09-09T22:52:28.814Z,22.79
2022-09-09T22:54:55.131Z,22.77
2022-09-09T22:57:21.458Z,22.75
2022-09-09T22:59:47.773Z,22.73
2022-09-09T23:02:14.514Z,22.75
2022-09-09T23:04:40.854Z,22.74
2022-09-09T23:07:08.299Z,22.74
2022-09-09T23:09:34.655Z,22.72
2022-09-09T23:12:01.584Z,22.69
2022-09-09T23:14:27.923Z,22.71
2022-09-09T23:16:54.922Z,22.70
2022-09-09T23:19:21.847Z,22.68
2022-09-09T23:21:48.189Z,22.70
2022-09-09T23:24:15.160Z,22.70
2022-09-09T23:26:41.802Z,22.69
2022-09-09T23:29:09.715Z,22.68
2022-09-09T23:31:39.873Z,22.69
2022-09-09T23:34:06.186Z,22.66
2022-09-09T23:36:32.510Z,22.68
2022-09-09T23:38:59.073Z,22.67
2022-09-09T23:41:25.492Z,22.65
2022-09-09T23:43:52.293Z,22.64
2022-09-09T23:46:20.193Z,22.65
2022-09-09T23:48:50.608Z,22.64
2022-09-09T23:51:19.677Z,22.62
2022-09-09T23:53:51.183Z,22.63
2022-09-09T23:56:20.486Z,22.63
2022-09-09T23:58:49.566Z,22.63
